Time;durP1;ratioP1;P1;durP2;ratioP2;P2;SDS_P1;SDS_P2;PMS_P1;PMS_P2;Temp;Humidity;BMP_temperature;BMP_pressure;BME280_temperature;BME280_humidity;BME280_pressure;Samples;Min_cycle;Max_cycle;Signal;HPM_P1;HPM_P2
2023/10/09 00:03:03;;;;;;;;;;;;;;;;;;5090388;28;19924;-72
2023/10/09 00:08:10;;;;;;;;;;;;;;;;;;5092043;28;19920;-72
2023/10/09 00:10:45;;;;;;;;;;;;;;;;;;5092500;28;19920;-73
2023/10/09 00:13:10;;;;;;;;;;;;;;;;;;5092464;28;19923;-72
2023/10/09 00:15:36;;;;;;;;;;;;;;;;;;5095414;28;19995;-72
2023/10/09 00:18:04;;;;;;;;;;;;;;;;;;5096212;28;20015;-72
2023/10/09 00:20:30;;;;;;;;;;;;;;;;;;5094168;28;20019;-72
2023/10/09 00:22:56;;;;;;;;;;;;;;;;;;5094593;28;20010;-72
2023/10/09 00:25:24;;;;;;;;;;;;;;;;;;5095722;28;19923;-72
2023/10/09 00:27:49;;;;;;;;;;;;;;;;;;5095845;28;20014;-72
2023/10/09 00:30:21;;;;;;;;;;;;;;;;;;5095820;28;19982;-72
2023/10/09 00:33:00;;;;;;;;;;;;;;;;;;5095818;28;19920;-72
2023/10/09 00:38:45;;;;;;;;;;;;;;;;;;5095455;28;19923;-72
2023/10/09 00:43:35;;;;;;;;;;;;;;;;;;5077189;28;20010;-73
2023/10/09 00:46:11;;;;;;;;;;;;;;;;;;5076901;28;20011;-72
2023/10/09 00:48:40;;;;;;;;;;;;;;;;;;5075668;28;19916;-72
2023/10/09 00:51:16;;;;;;;;;;;;;;;;;;5093431;28;19920;-73
2023/10/09 00:53:41;;;;;;;;;;;;;;;;;;5094829;28;19963;-73
2023/10/09 00:58:55;;;;;;;;;;;;;;;;;;5076566;28;20325;-73
2023/10/09 01:01:26;;;;;;;;;;;;;;;;;;5094058;28;19970;-73
2023/10/09 01:03:51;;;;;;;;;;;;;;;;;;5076699;28;19927;-73
2023/10/09 01:06:20;;;;;;;;;;;;;;;;;;5076894;28;19924;-72
2023/10/09 01:08:56;;;;;;;;;;;;;;;;;;5077041;28;20442;-73
2023/10/09 01:11:23;;;;;;;;;;;;;;;;;;5093795;28;19924;-72
2023/10/09 01:16:17;;;;;;;;;;;;;;;;;;5076756;28;20260;-72
2023/10/09 01:18:43;;;;;;;;;;;;;;;;;;5095148;28;19924;-72
2023/10/09 01:21:12;;;;;;;;;;;;;;;;;;5091458;28;20007;-73
2023/10/09 01:23:42;;;;;;;;;;;;;;;;;;5113821;28;19930;-72
2023/10/09 01:26:08;;;;;;;;;;;;;;;;;;5113125;28;19915;-72
2023/10/09 01:28:34;;;;;;;;;;;;;;;;;;5096881;28;19919;-73
2023/10/09 01:31:02;;;;;;;;;;;;;;;;;;5096702;28;20444;-72
2023/10/09 01:33:28;;;;;;;;;;;;;;;;;;5114982;28;19920;-73
2023/10/09 01:35:59;;;;;;;;;;;;;;;;;;5115074;28;19916;-72
2023/10/09 01:38:40;;;;;;;;;;;;;;;;;;5115261;28;20429;-72
2023/10/09 01:41:08;;;;;;;;;;;;;;;;;;5114988;28;20340;-72
2023/10/09 01:43:34;;;;;;;;;;;;;;;;;;5114909;28;19927;-72
2023/10/09 01:46:01;;;;;;;;;;;;;;;;;;5115187;28;19955;-71
2023/10/09 01:48:27;;;;;;;;;;;;;;;;;;5114920;28;19920;-72
2023/10/09 01:50:53;;;;;;;;;;;;;;;;;;5114840;28;19919;-72
2023/10/09 01:53:22;;;;;;;;;;;;;;;;;;5113596;28;19916;-73
2023/10/09 01:55:47;;;;;;;;;;;;;;;;;;5113919;28;19920;-72
2023/10/09 02:01:06;;;;;;;;;;;;;;;;;;5113394;28;19964;-72
2023/10/09 02:03:36;;;;;;;;;;;;;;;;;;5096215;28;20367;-72
2023/10/09 02:06:17;;;;;;;;;;;;;;;;;;5114529;28;19916;-72
2023/10/09 02:08:49;;;;;;;;;;;;;;;;;;5096416;28;19922;-73
2023/10/09 02:11:18;;;;;;;;;;;;;;;;;;5113401;28;20004;-73
2023/10/09 02:13:45;;;;;;;;;;;;;;;;;;5096546;28;19934;-73
2023/10/09 02:16:15;;;;;;;;;;;;;;;;;;5096209;28;19916;-73
2023/10/09 02:18:52;;;;;;;;;;;;;;;;;;5095941;28;20409;-73
2023/10/09 02:21:28;;;;;;;;;;;;;;;;;;5114153;28;20436;-73
2023/10/09 02:23:57;;;;;;;;;;;;;;;;;;5113825;28;19919;-72
2023/10/09 02:31:46;;;;;;;;;;;;;;;;;;5105963;28;20007;-72
2023/10/09 02:34:15;;;;;;;;;;;;;;;;;;5114421;28;20349;-72
2023/10/09 02:36:48;;;;;;;;;;;;;;;;;;5113893;28;20377;-72
2023/10/09 02:39:23;;;;;;;;;;;;;;;;;;5095473;28;19947;-72
2023/10/09 02:41:49;;;;;;;;;;;;;;;;;;5113935;28;19927;-72
2023/10/09 02:44:15;;;;;;;;;;;;;;;;;;5113896;28;19915;-72
2023/10/09 02:46:40;;;;;;;;;;;;;;;;;;5113514;28;19923;-73
2023/10/09 02:49:06;;;;;;;;;;;;;;;;;;5112185;28;19916;-72
2023/10/09 02:51:41;;;;;;;;;;;;;;;;;;5093445;28;20565;-72
2023/10/09 02:54:26;;;;;;;;;;;;;;;;;;5111599;28;20635;-72
2023/10/09 02:59:21;;;;;;;;;;;;;;;;;;5087379;28;19916;-72
2023/10/09 03:01:47;;;;;;;;;;;;;;;;;;5087762;28;19966;-72
2023/10/09 03:04:14;;;;;;;;;;;;;;;;;;5087448;28;19971;-73
2023/10/09 03:06:49;;;;;;;;;;;;;;;;;;5089459;28;19916;-73
2023/10/09 03:09:16;;;;;;;;;;;;;;;;;;5071468;28;19924;-73
2023/10/09 03:11:42;;;;;;;;;;;;;;;;;;5071747;28;19966;-73
2023/10/09 03:14:07;;;;;;;;;;;;;;;;;;5089374;28;19960;-71
2023/10/09 03:16:32;;;;;;;;;;;;;;;;;;5088288;28;20011;-73
2023/10/09 03:18:59;;;;;;;;;;;;;;;;;;5089146;28;19967;-73
2023/10/09 03:21:25;;;;;;;;;;;;;;;;;;5071299;28;19914;-72
2023/10/09 03:23:50;;;;;;;;;;;;;;;;;;5089011;28;19947;-71
2023/10/09 03:26:17;;;;;;;;;;;;;;;;;;5088788;28;19945;-72
2023/10/09 03:28:43;;;;;;;;;;;;;;;;;;5070746;28;19930;-72
2023/10/09 03:31:10;;;;;;;;;;;;;;;;;;5088235;28;19920;-71
2023/10/09 03:33:35;;;;;;;;;;;;;;;;;;5089108;28;19923;-72
2023/10/09 03:36:01;;;;;;;;;;;;;;;;;;5089118;28;19916;-72
2023/10/09 03:38:34;;;;;;;;;;;;;;;;;;5088690;28;20387;-72
2023/10/09 03:41:00;;;;;;;;;;;;;;;;;;5089524;28;19912;-72
2023/10/09 03:43:31;;;;;;;;;;;;;;;;;;5088784;28;19924;-71
2023/10/09 03:45:57;;;;;;;;;;;;;;;;;;5089155;28;19916;-72
2023/10/09 03:48:26;;;;;;;;;;;;;;;;;;5089200;28;19974;-72
2023/10/09 03:53:36;;;;;;;;;;;;;;;;;;5092663;28;19920;-73
2023/10/09 03:56:05;;;;;;;;;;;;;;;;;;5074188;28;19965;-72
2023/10/09 03:58:33;;;;;;;;;;;;;;;;;;5073847;28;19920;-72
2023/10/09 04:00:58;;;;;;;;;;;;;;;;;;5074018;28;20405;-72
2023/10/09 04:03:24;;;;;;;;;;;;;;;;;;5091885;28;19920;-72
2023/10/09 04:05:51;;;;;;;;;;;;;;;;;;5092161;28;19920;-73
2023/10/09 04:08:19;;;;;;;;;;;;;;;;;;5074446;28;20857;-73
2023/10/09 04:10:54;;;;;;;;;;;;;;;;;;5057091;28;19920;-72
2023/10/09 04:13:22;;;;;;;;;;;;;;;;;;5074143;28;19924;-72
2023/10/09 04:15:49;;;;;;;;;;;;;;;;;;5091953;28;19920;-72
2023/10/09 04:18:15;;;;;;;;;;;;;;;;;;5091900;28;19916;-72
2023/10/09 04:21:15;;;;;;;;;;;;;;;;;;5091554;28;20014;-72
2023/10/09 04:23:59;;;;;;;;;;;;;;;;;;5091288;28;19967;-72
2023/10/09 04:26:21;;;;;;;;;;;;;;;;;;5091625;28;19939;-71
2023/10/09 04:28:51;;;;;;;;;;;;;;;;;;5091522;28;20383;-71
2023/10/09 04:31:19;;;;;;;;;;;;;;;;;;5056955;28;20284;-71
2023/10/09 04:33:54;;;;;;;;;;;;;;;;;;5091767;28;19942;-71
2023/10/09 04:41:32;;;;;;;;;;;;;;;;;;5090800;28;19950;-72
2023/10/09 04:44:19;;;;;;;;;;;;;;;;;;5056764;28;19928;-72
2023/10/09 04:46:43;;;;;;;;;;;;;;;;;;5092665;28;19924;-71
2023/10/09 04:49:27;;;;;;;;;;;;;;;;;;5111905;28;19916;-72
2023/10/09 04:52:06;;;;;;;;;;;;;;;;;;5110846;28;20278;-72
2023/10/09 04:55:02;;;;;;;;;;;;;;;;;;5111241;28;20324;-72
2023/10/09 04:57:26;;;;;;;;;;;;;;;;;;5111309;28;20363;-72
2023/10/09 04:59:51;;;;;;;;;;;;;;;;;;5097040;28;19923;-73
2023/10/09 05:02:19;;;;;;;;;;;;;;;;;;5091470;28;19924;-72
2023/10/09 05:04:47;;;;;;;;;;;;;;;;;;5096643;28;19972;-73
2023/10/09 05:10:14;;;;;;;;;;;;;;;;;;5099061;28;19924;-73
2023/10/09 05:12:46;;;;;;;;;;;;;;;;;;5102741;28;19915;-73
2023/10/09 05:15:13;;;;;;;;;;;;;;;;;;5090953;28;19930;-72
2023/10/09 05:17:39;;;;;;;;;;;;;;;;;;5109094;28;19915;-72
2023/10/09 05:22:58;;;;;;;;;;;;;;;;;;5105368;28;19923;-72
2023/10/09 05:25:53;;;;;;;;;;;;;;;;;;5089536;28;19955;-72
2023/10/09 05:31:06;;;;;;;;;;;;;;;;;;5108726;28;19968;-72
2023/10/09 05:33:33;;;;;;;;;;;;;;;;;;5109379;28;19916;-72
2023/10/09 05:36:17;;;;;;;;;;;;;;;;;;5109719;28;20291;-73
2023/10/09 05:38:58;;;;;;;;;;;;;;;;;;5107949;28;20298;-71
2023/10/09 05:49:54;;;;;;;;;;;;;;;;;;5090641;28;19986;-71
2023/10/09 06:11:38;;;;;;;;;;;;;;;;;;5090150;28;19920;-71
2023/10/09 06:14:03;;;;;;;;;;;;;;;;;;5090084;28;19916;-71
2023/10/09 06:16:41;;;;;;;;;;;;;;;;;;5090548;28;19920;-73
2023/10/09 06:19:11;;;;;;;;;;;;;;;;;;5072111;28;19916;-73
2023/10/09 06:24:18;;;;;;;;;;;;;;;;;;5100771;28;19924;-73
2023/10/09 06:29:37;;;;;;;;;;;;;;;;;;5110750;28;19962;-72
2023/10/09 06:34:51;;;;;;;;;;;;;;;;;;5110402;28;19919;-72
2023/10/09 06:40:10;;;;;;;;;;;;;;;;;;5110098;28;19923;-72
2023/10/09 06:45:08;;;;;;;;;;;;;;;;;;5110004;28;19920;-72
2023/10/09 06:47:41;;;;;;;;;;;;;;;;;;5109882;28;20010;-73
2023/10/09 06:50:24;;;;;;;;;;;;;;;;;;5091946;28;20335;-72
2023/10/09 06:55:48;;;;;;;;;;;;;;;;;;5110025;28;20341;-72
2023/10/09 06:58:15;;;;;;;;;;;;;;;;;;5109252;28;20321;-73
2023/10/09 07:03:34;;;;;;;;;;;;;;;;;;5109873;28;19926;-73
2023/10/09 07:06:05;;;;;;;;;;;;;;;;;;5108825;28;19919;-73
2023/10/09 07:08:37;;;;;;;;;;;;;;;;;;5090462;28;19967;-73
2023/10/09 07:11:21;;;;;;;;;;;;;;;;;;5110115;28;19994;-72
2023/10/09 07:13:53;;;;;;;;;;;;;;;;;;5109930;28;19915;-73
2023/10/09 07:16:28;;;;;;;;;;;;;;;;;;5109529;28;20334;-72
2023/10/09 07:18:54;;;;;;;;;;;;;;;;;;5109451;28;19919;-72
2023/10/09 07:21:27;;;;;;;;;;;;;;;;;;5109663;28;20431;-72
2023/10/09 07:23:56;;;;;;;;;;;;;;;;;;5110216;28;19926;-72
2023/10/09 07:26:36;;;;;;;;;;;;;;;;;;5094673;28;19969;-72
2023/10/09 07:29:16;;;;;;;;;;;;;;;;;;5113303;28;19961;-72
2023/10/09 07:31:45;;;;;;;;;;;;;;;;;;5113241;28;19946;-72
2023/10/09 07:36:56;;;;;;;;;;;;;;;;;;5112730;28;19915;-72
2023/10/09 07:39:22;;;;;;;;;;;;;;;;;;5112522;28;19912;-72
2023/10/09 07:42:01;;;;;;;;;;;;;;;;;;5111985;28;20383;-72
2023/10/09 07:44:42;;;;;;;;;;;;;;;;;;5112680;28;20379;-72
2023/10/09 07:49:58;;;;;;;;;;;;;;;;;;5111176;28;20381;-72
2023/10/09 07:52:26;;;;;;;;;;;;;;;;;;5112926;28;19915;-72
2023/10/09 07:54:53;;;;;;;;;;;;;;;;;;5110288;28;19924;-71
2023/10/09 07:57:25;;;;;;;;;;;;;;;;;;5111848;28;19926;-71
2023/10/09 08:02:38;;;;;;;;;;;;;;;;;;5093862;28;19975;-72
2023/10/09 08:05:06;;;;;;;;;;;;;;;;;;5099905;28;19920;-72
2023/10/09 08:07:35;;;;;;;;;;;;;;;;;;5095375;28;19916;-74
2023/10/09 08:17:48;;;;;;;;;;;;;;;;;;5112625;28;19920;-73
2023/10/09 08:20:17;;;;;;;;;;;;;;;;;;5111814;28;19915;-73
2023/10/09 08:22:52;;;;;;;;;;;;;;;;;;5111751;28;19924;-73
2023/10/09 08:25:26;;;;;;;;;;;;;;;;;;5111237;28;19946;-73
2023/10/09 08:27:54;;;;;;;;;;;;;;;;;;5096762;28;19923;-73
2023/10/09 08:33:04;;;;;;;;;;;;;;;;;;5112346;28;19968;-73
2023/10/09 08:35:30;;;;;;;;;;;;;;;;;;5094371;28;19994;-73
2023/10/09 08:37:58;;;;;;;;;;;;;;;;;;5093667;28;19927;-72
2023/10/09 08:40:23;;;;;;;;;;;;;;;;;;5091488;28;19977;-72
2023/10/09 08:42:49;;;;;;;;;;;;;;;;;;5073681;28;20375;-72
2023/10/09 08:45:16;;;;;;;;;;;;;;;;;;5091310;28;19941;-72
2023/10/09 08:47:41;;;;;;;;;;;;;;;;;;5073568;28;19912;-72
2023/10/09 08:50:13;;;;;;;;;;;;;;;;;;5091752;28;20394;-72
2023/10/09 08:52:38;;;;;;;;;;;;;;;;;;5103639;28;19927;-73
2023/10/09 08:55:06;;;;;;;;;;;;;;;;;;5111930;28;19916;-72
2023/10/09 08:57:33;;;;;;;;;;;;;;;;;;5111703;28;19916;-72
2023/10/09 08:59:58;;;;;;;;;;;;;;;;;;5111617;28;19920;-72
2023/10/09 09:02:24;;;;;;;;;;;;;;;;;;5093237;28;20378;-73
2023/10/09 09:04:50;;;;;;;;;;;;;;;;;;5111392;28;19915;-73
2023/10/09 09:07:16;;;;;;;;;;;;;;;;;;5111802;28;19916;-73
2023/10/09 09:09:41;;;;;;;;;;;;;;;;;;5111139;28;19964;-72
2023/10/09 09:12:08;;;;;;;;;;;;;;;;;;5109312;28;20525;-72
2023/10/09 09:14:34;;;;;;;;;;;;;;;;;;5110179;28;20267;-73
2023/10/09 09:17:03;;;;;;;;;;;;;;;;;;5108223;28;19916;-72
2023/10/09 09:19:31;;;;;;;;;;;;;;;;;;5108770;28;19926;-72
2023/10/09 09:21:59;;;;;;;;;;;;;;;;;;5109746;28;19942;-72
2023/10/09 09:24:30;;;;;;;;;;;;;;;;;;5109362;28;19916;-72
2023/10/09 09:26:59;;;;;;;;;;;;;;;;;;5109263;28;19916;-72
2023/10/09 09:29:24;;;;;;;;;;;;;;;;;;5108616;28;19931;-72
2023/10/09 09:31:51;;;;;;;;;;;;;;;;;;5109648;28;19916;-71
2023/10/09 09:34:17;;;;;;;;;;;;;;;;;;5111193;28;19920;-72
2023/10/09 09:36:47;;;;;;;;;;;;;;;;;;5110740;28;19936;-72
2023/10/09 09:39:19;;;;;;;;;;;;;;;;;;5111253;28;19915;-72
2023/10/09 09:41:45;;;;;;;;;;;;;;;;;;5110691;28;19916;-72
2023/10/09 09:44:14;;;;;;;;;;;;;;;;;;5110602;28;19961;-73
2023/10/09 09:46:42;;;;;;;;;;;;;;;;;;5100838;28;19916;-72
2023/10/09 09:49:16;;;;;;;;;;;;;;;;;;5097304;28;19931;-72
2023/10/09 09:51:42;;;;;;;;;;;;;;;;;;5104864;28;20393;-72
2023/10/09 09:54:10;;;;;;;;;;;;;;;;;;5091108;28;19920;-72
2023/10/09 09:56:35;;;;;;;;;;;;;;;;;;5075048;28;19965;-73
2023/10/09 09:59:01;;;;;;;;;;;;;;;;;;5097546;28;19916;-72
2023/10/09 10:01:26;;;;;;;;;;;;;;;;;;5094629;28;19920;-73
2023/10/09 10:03:52;;;;;;;;;;;;;;;;;;5093636;28;19928;-74
2023/10/09 10:06:18;;;;;;;;;;;;;;;;;;5092168;28;20032;-72
2023/10/09 10:08:50;;;;;;;;;;;;;;;;;;5092039;28;20568;-72
2023/10/09 10:11:16;;;;;;;;;;;;;;;;;;5104877;28;19962;-73
2023/10/09 10:13:41;;;;;;;;;;;;;;;;;;5110158;28;20322;-72
2023/10/09 10:18:38;;;;;;;;;;;;;;;;;;5110030;28;19927;-72
2023/10/09 10:21:03;;;;;;;;;;;;;;;;;;5110583;28;19916;-72
2023/10/09 10:23:29;;;;;;;;;;;;;;;;;;5110454;28;19924;-72
2023/10/09 10:25:59;;;;;;;;;;;;;;;;;;5109999;28;20007;-73
2023/10/09 10:28:45;;;;;;;;;;;;;;;;;;5110520;28;19934;-72
2023/10/09 10:31:13;;;;;;;;;;;;;;;;;;5110218;28;19919;-72
2023/10/09 10:33:40;;;;;;;;;;;;;;;;;;5110132;28;20385;-71
2023/10/09 10:36:06;;;;;;;;;;;;;;;;;;5110072;28;19923;-71
2023/10/09 10:38:53;;;;;;;;;;;;;;;;;;5105999;28;19908;-74
2023/10/09 10:41:17;;;;;;;;;;;;;;;;;;5106844;28;19939;-72
2023/10/09 10:49:21;;;;;;;;;;;;;;;;;;5109834;28;19950;-72
2023/10/09 10:51:49;;;;;;;;;;;;;;;;;;5109998;28;19920;-72
2023/10/09 10:56:59;;;;;;;;;;;;;;;;;;5109743;28;19931;-72
2023/10/09 10:59:26;;;;;;;;;;;;;;;;;;5109803;28;19950;-72
2023/10/09 11:02:22;;;;;;;;;;;;;;;;;;5109620;28;20016;-73
2023/10/09 11:05:14;;;;;;;;;;;;;;;;;;5109989;28;19920;-74
2023/10/09 11:07:33;;;;;;;;;;;;;;;;;;5103374;28;20044;-73
2023/10/09 11:12:44;;;;;;;;;;;;;;;;;;5107617;28;19920;-72
2023/10/09 11:17:47;;;;;;;;;;;;;;;;;;5102788;28;19926;-73
2023/10/09 11:20:24;;;;;;;;;;;;;;;;;;5099798;28;20397;-73
2023/10/09 11:25:34;;;;;;;;;;;;;;;;;;5107717;28;20015;-73
2023/10/09 11:28:15;;;;;;;;;;;;;;;;;;5107488;28;20513;-72
2023/10/09 11:30:40;;;;;;;;;;;;;;;;;;5090654;28;19920;-73
2023/10/09 11:33:07;;;;;;;;;;;;;;;;;;5074263;28;19966;-73
2023/10/09 11:35:34;;;;;;;;;;;;;;;;;;5069938;28;19939;-73
2023/10/09 11:37:59;;;;;;;;;;;;;;;;;;5100079;28;19918;-73
2023/10/09 11:40:25;;;;;;;;;;;;;;;;;;5108849;28;19923;-73
2023/10/09 11:42:57;;;;;;;;;;;;;;;;;;5109128;28;19924;-74
2023/10/09 11:45:29;;;;;;;;;;;;;;;;;;5090617;28;19916;-73
2023/10/09 11:47:58;;;;;;;;;;;;;;;;;;5109297;28;19965;-73
2023/10/09 11:50:30;;;;;;;;;;;;;;;;;;5109379;28;20002;-72
2023/10/09 11:55:40;;;;;;;;;;;;;;;;;;5101910;28;20330;-72
2023/10/09 11:58:06;;;;;;;;;;;;;;;;;;5088612;28;19916;-73
2023/10/09 12:00:44;;;;;;;;;;;;;;;;;;5090213;28;19967;-73
2023/10/09 12:03:09;;;;;;;;;;;;;;;;;;5105280;28;19924;-74
2023/10/09 12:05:35;;;;;;;;;;;;;;;;;;5090631;28;20386;-72
2023/10/09 12:08:01;;;;;;;;;;;;;;;;;;5103962;28;19915;-73
2023/10/09 12:10:26;;;;;;;;;;;;;;;;;;5109950;28;20331;-72
2023/10/09 12:12:52;;;;;;;;;;;;;;;;;;5085840;28;20038;-73
2023/10/09 12:15:17;;;;;;;;;;;;;;;;;;5107102;28;19919;-72
2023/10/09 12:17:44;;;;;;;;;;;;;;;;;;5098537;28;19920;-72
2023/10/09 12:20:14;;;;;;;;;;;;;;;;;;5101129;28;19994;-72
2023/10/09 12:22:40;;;;;;;;;;;;;;;;;;5096593;28;19920;-72
2023/10/09 12:25:09;;;;;;;;;;;;;;;;;;5093574;28;20379;-73
2023/10/09 12:27:34;;;;;;;;;;;;;;;;;;5092274;28;19916;-73
2023/10/09 12:30:03;;;;;;;;;;;;;;;;;;5094712;28;20291;-73
2023/10/09 12:32:28;;;;;;;;;;;;;;;;;;5104581;28;20477;-72
2023/10/09 12:34:56;;;;;;;;;;;;;;;;;;5091597;28;20005;-73
2023/10/09 12:37:21;;;;;;;;;;;;;;;;;;5091541;28;20386;-72
2023/10/09 12:39:47;;;;;;;;;;;;;;;;;;5091501;28;19912;-72
2023/10/09 12:42:12;;;;;;;;;;;;;;;;;;5090355;28;19943;-72
2023/10/09 12:44:42;;;;;;;;;;;;;;;;;;5091565;28;19920;-72
2023/10/09 12:47:11;;;;;;;;;;;;;;;;;;5091522;28;19920;-72
2023/10/09 12:49:38;;;;;;;;;;;;;;;;;;5091444;28;19916;-72
2023/10/09 12:52:03;;;;;;;;;;;;;;;;;;5091652;28;19927;-71
2023/10/09 12:54:30;;;;;;;;;;;;;;;;;;5072649;28;19920;-72
2023/10/09 12:56:56;;;;;;;;;;;;;;;;;;5091374;28;20425;-74
2023/10/09 12:59:23;;;;;;;;;;;;;;;;;;5091509;28;19913;-73
2023/10/09 13:01:57;;;;;;;;;;;;;;;;;;5073100;28;19981;-73
2023/10/09 13:04:23;;;;;;;;;;;;;;;;;;5090491;28;19920;-73
2023/10/09 13:06:51;;;;;;;;;;;;;;;;;;5090808;28;19922;-73
2023/10/09 13:09:24;;;;;;;;;;;;;;;;;;5090758;28;19916;-73
2023/10/09 13:11:50;;;;;;;;;;;;;;;;;;5090926;28;19916;-73
2023/10/09 13:14:22;;;;;;;;;;;;;;;;;;5090930;28;19938;-73
2023/10/09 13:16:50;;;;;;;;;;;;;;;;;;5089759;28;19920;-73
2023/10/09 13:19:15;;;;;;;;;;;;;;;;;;5091199;28;19916;-73
2023/10/09 13:21:42;;;;;;;;;;;;;;;;;;5090144;28;20292;-73
2023/10/09 13:24:12;;;;;;;;;;;;;;;;;;5091056;28;19920;-72
2023/10/09 13:26:38;;;;;;;;;;;;;;;;;;5091020;28;19971;-73
2023/10/09 13:29:03;;;;;;;;;;;;;;;;;;5090742;28;19952;-73
2023/10/09 13:31:31;;;;;;;;;;;;;;;;;;5090805;28;19927;-73
2023/10/09 13:33:58;;;;;;;;;;;;;;;;;;5089055;28;19908;-73
2023/10/09 13:36:27;;;;;;;;;;;;;;;;;;5089088;28;20045;-73
2023/10/09 13:38:53;;;;;;;;;;;;;;;;;;5089549;28;19951;-73
2023/10/09 13:41:18;;;;;;;;;;;;;;;;;;5089967;28;20426;-73
2023/10/09 13:43:44;;;;;;;;;;;;;;;;;;5097188;28;20026;-73
2023/10/09 13:46:17;;;;;;;;;;;;;;;;;;5109942;28;21457;-73
2023/10/09 13:48:43;;;;;;;;;;;;;;;;;;5091945;28;19916;-73
2023/10/09 13:51:13;;;;;;;;;;;;;;;;;;5105284;28;19923;-72
2023/10/09 13:53:44;;;;;;;;;;;;;;;;;;5092677;28;19920;-73
2023/10/09 13:56:14;;;;;;;;;;;;;;;;;;5111094;28;20794;-72
2023/10/09 13:58:42;;;;;;;;;;;;;;;;;;5092319;28;19920;-73
2023/10/09 14:01:08;;;;;;;;;;;;;;;;;;5110874;28;19974;-73
2023/10/09 14:03:33;;;;;;;;;;;;;;;;;;5110429;28;19939;-72
2023/10/09 14:06:10;;;;;;;;;;;;;;;;;;5110560;28;20291;-72
2023/10/09 14:08:36;;;;;;;;;;;;;;;;;;5107856;28;19919;-73
2023/10/09 14:11:03;;;;;;;;;;;;;;;;;;5088064;28;19923;-73
2023/10/09 14:13:29;;;;;;;;;;;;;;;;;;5106506;28;19919;-72
2023/10/09 14:15:55;;;;;;;;;;;;;;;;;;5098652;28;19922;-74
2023/10/09 14:18:21;;;;;;;;;;;;;;;;;;5081994;28;19920;-72
2023/10/09 14:20:46;;;;;;;;;;;;;;;;;;5090714;28;20389;-72
2023/10/09 14:23:20;;;;;;;;;;;;;;;;;;5099334;28;20386;-73
2023/10/09 14:25:49;;;;;;;;;;;;;;;;;;5090030;28;20372;-72
2023/10/09 14:28:18;;;;;;;;;;;;;;;;;;5089981;28;20360;-72
2023/10/09 14:30:44;;;;;;;;;;;;;;;;;;5089752;28;19920;-73
2023/10/09 14:33:13;;;;;;;;;;;;;;;;;;5089477;28;19970;-72
2023/10/09 14:35:39;;;;;;;;;;;;;;;;;;5054743;28;19922;-73
2023/10/09 14:38:11;;;;;;;;;;;;;;;;;;5089564;28;20295;-72
2023/10/09 14:40:41;;;;;;;;;;;;;;;;;;5089476;28;20394;-72
2023/10/09 14:43:08;;;;;;;;;;;;;;;;;;5090037;28;19924;-73
2023/10/09 14:45:33;;;;;;;;;;;;;;;;;;5089730;28;19916;-73
2023/10/09 14:48:00;;;;;;;;;;;;;;;;;;5089541;28;19916;-73
2023/10/09 14:50:25;;;;;;;;;;;;;;;;;;5091238;28;20291;-74
2023/10/09 14:52:50;;;;;;;;;;;;;;;;;;5095236;28;19916;-73
2023/10/09 14:55:20;;;;;;;;;;;;;;;;;;5088368;28;19920;-73
2023/10/09 14:57:46;;;;;;;;;;;;;;;;;;5088382;28;19916;-72
2023/10/09 15:00:14;;;;;;;;;;;;;;;;;;5089560;28;19954;-73
2023/10/09 15:02:39;;;;;;;;;;;;;;;;;;5088709;28;20379;-72
2023/10/09 15:05:04;;;;;;;;;;;;;;;;;;5089708;28;19916;-74
2023/10/09 15:07:30;;;;;;;;;;;;;;;;;;5089313;28;19917;-73
2023/10/09 15:10:01;;;;;;;;;;;;;;;;;;5089453;28;20001;-73
2023/10/09 15:12:29;;;;;;;;;;;;;;;;;;5088997;28;20309;-73
2023/10/09 15:14:56;;;;;;;;;;;;;;;;;;5088580;28;19920;-73
2023/10/09 15:17:21;;;;;;;;;;;;;;;;;;5087322;28;19924;-72
2023/10/09 15:19:47;;;;;;;;;;;;;;;;;;5088394;28;19920;-72
2023/10/09 15:22:12;;;;;;;;;;;;;;;;;;5088224;28;19916;-72
2023/10/09 15:24:38;;;;;;;;;;;;;;;;;;5088022;28;19916;-72
2023/10/09 15:27:05;;;;;;;;;;;;;;;;;;5088598;28;19962;-72
2023/10/09 15:29:32;;;;;;;;;;;;;;;;;;5088884;28;20086;-72
2023/10/09 15:32:04;;;;;;;;;;;;;;;;;;5089072;28;19926;-73
2023/10/09 15:34:31;;;;;;;;;;;;;;;;;;5070788;28;20299;-73
2023/10/09 15:36:56;;;;;;;;;;;;;;;;;;5089173;28;19916;-72
2023/10/09 15:39:23;;;;;;;;;;;;;;;;;;5088278;28;19916;-72
2023/10/09 15:41:50;;;;;;;;;;;;;;;;;;5087607;28;19977;-72
2023/10/09 15:44:16;;;;;;;;;;;;;;;;;;5088910;28;19920;-73
2023/10/09 15:46:43;;;;;;;;;;;;;;;;;;5092725;28;19916;-72
2023/10/09 15:49:11;;;;;;;;;;;;;;;;;;5092554;28;19923;-73
2023/10/09 15:51:37;;;;;;;;;;;;;;;;;;5100716;28;20090;-74
2023/10/09 15:54:02;;;;;;;;;;;;;;;;;;5100402;28;19923;-73
2023/10/09 15:56:28;;;;;;;;;;;;;;;;;;5094853;28;19927;-73
2023/10/09 15:58:53;;;;;;;;;;;;;;;;;;5090665;28;19916;-72
2023/10/09 16:01:19;;;;;;;;;;;;;;;;;;5090465;28;19938;-73
2023/10/09 16:03:47;;;;;;;;;;;;;;;;;;5090200;28;19927;-72
2023/10/09 16:06:12;;;;;;;;;;;;;;;;;;5090557;28;19958;-73
2023/10/09 16:08:38;;;;;;;;;;;;;;;;;;5091136;28;19964;-72
2023/10/09 16:11:03;;;;;;;;;;;;;;;;;;5092154;28;19916;-72
2023/10/09 16:13:29;;;;;;;;;;;;;;;;;;5091259;28;20275;-74
2023/10/09 16:15:59;;;;;;;;;;;;;;;;;;5091987;28;19922;-73
2023/10/09 16:18:24;;;;;;;;;;;;;;;;;;5091187;28;19923;-73
2023/10/09 16:20:50;;;;;;;;;;;;;;;;;;5091551;28;19916;-72
2023/10/09 16:23:17;;;;;;;;;;;;;;;;;;5095184;28;20470;-73
2023/10/09 16:25:42;;;;;;;;;;;;;;;;;;5092184;28;19938;-74
2023/10/09 16:28:08;;;;;;;;;;;;;;;;;;5091603;28;20381;-73
2023/10/09 16:30:35;;;;;;;;;;;;;;;;;;5091968;28;20427;-72
2023/10/09 16:33:04;;;;;;;;;;;;;;;;;;5105141;28;19954;-72
2023/10/09 16:35:30;;;;;;;;;;;;;;;;;;5099206;28;19946;-72
2023/10/09 16:37:56;;;;;;;;;;;;;;;;;;5091581;28;20263;-72
2023/10/09 16:40:21;;;;;;;;;;;;;;;;;;5073764;28;19916;-72
2023/10/09 16:42:49;;;;;;;;;;;;;;;;;;5090622;28;20445;-73
2023/10/09 16:45:17;;;;;;;;;;;;;;;;;;5100790;28;20057;-74
2023/10/09 16:47:42;;;;;;;;;;;;;;;;;;5111918;28;19923;-73
2023/10/09 16:50:11;;;;;;;;;;;;;;;;;;5112064;28;20368;-73
2023/10/09 16:52:37;;;;;;;;;;;;;;;;;;5111048;28;19916;-72
2023/10/09 16:55:08;;;;;;;;;;;;;;;;;;5110553;28;19923;-73
2023/10/09 16:57:34;;;;;;;;;;;;;;;;;;5111885;28;19927;-73
2023/10/09 16:59:59;;;;;;;;;;;;;;;;;;5111967;28;20289;-73
2023/10/09 17:02:27;;;;;;;;;;;;;;;;;;5111664;28;19924;-73
2023/10/09 17:04:54;;;;;;;;;;;;;;;;;;5111869;28;19918;-73
2023/10/09 17:07:23;;;;;;;;;;;;;;;;;;5110398;28;19916;-73
2023/10/09 17:09:48;;;;;;;;;;;;;;;;;;5108884;28;19916;-73
2023/10/09 17:12:17;;;;;;;;;;;;;;;;;;5109259;28;19965;-74
2023/10/09 17:14:42;;;;;;;;;;;;;;;;;;5107748;28;19995;-74
2023/10/09 17:17:08;;;;;;;;;;;;;;;;;;5109673;28;19923;-73
2023/10/09 17:19:35;;;;;;;;;;;;;;;;;;5109188;28;19959;-72
2023/10/09 17:22:10;;;;;;;;;;;;;;;;;;5109407;28;20264;-72
2023/10/09 17:24:36;;;;;;;;;;;;;;;;;;5091515;28;19969;-73
2023/10/09 17:27:01;;;;;;;;;;;;;;;;;;5108993;28;19916;-73
2023/10/09 17:29:27;;;;;;;;;;;;;;;;;;5109243;28;19922;-72
2023/10/09 17:31:52;;;;;;;;;;;;;;;;;;5111228;28;20039;-73
2023/10/09 17:34:18;;;;;;;;;;;;;;;;;;5111006;28;19912;-73
2023/10/09 17:36:43;;;;;;;;;;;;;;;;;;5110593;28;19935;-74
2023/10/09 17:39:12;;;;;;;;;;;;;;;;;;5110904;28;19919;-75
2023/10/09 17:41:38;;;;;;;;;;;;;;;;;;5105070;28;19971;-75
2023/10/09 17:44:04;;;;;;;;;;;;;;;;;;5091919;28;19959;-74
2023/10/09 17:46:29;;;;;;;;;;;;;;;;;;5089654;28;20370;-74
2023/10/09 17:48:59;;;;;;;;;;;;;;;;;;5090730;28;19934;-74
2023/10/09 17:51:24;;;;;;;;;;;;;;;;;;5072523;28;19912;-74
2023/10/09 17:53:50;;;;;;;;;;;;;;;;;;5090233;28;19959;-74
2023/10/09 17:56:18;;;;;;;;;;;;;;;;;;5090038;28;19963;-72
2023/10/09 17:58:49;;;;;;;;;;;;;;;;;;5089565;28;19931;-72
2023/10/09 18:01:15;;;;;;;;;;;;;;;;;;5098973;28;20315;-73
2023/10/09 18:03:41;;;;;;;;;;;;;;;;;;5110814;28;19920;-72
2023/10/09 18:06:06;;;;;;;;;;;;;;;;;;5092076;28;19984;-72
2023/10/09 18:08:31;;;;;;;;;;;;;;;;;;5109790;28;19927;-73
2023/10/09 18:10:57;;;;;;;;;;;;;;;;;;5110525;28;20022;-72
2023/10/09 18:13:24;;;;;;;;;;;;;;;;;;5110561;28;19919;-73
2023/10/09 18:15:50;;;;;;;;;;;;;;;;;;5110325;28;20302;-73
2023/10/09 18:18:22;;;;;;;;;;;;;;;;;;5110417;28;19920;-73
2023/10/09 18:20:49;;;;;;;;;;;;;;;;;;5110402;28;19920;-73
2023/10/09 18:23:14;;;;;;;;;;;;;;;;;;5092022;28;19919;-73
2023/10/09 18:25:40;;;;;;;;;;;;;;;;;;5105590;28;20431;-73
2023/10/09 18:28:05;;;;;;;;;;;;;;;;;;5089950;28;20432;-73
2023/10/09 18:30:31;;;;;;;;;;;;;;;;;;5092269;28;19915;-73
2023/10/09 18:32:59;;;;;;;;;;;;;;;;;;5108442;28;19919;-73
2023/10/09 18:35:27;;;;;;;;;;;;;;;;;;5105706;28;20001;-73
2023/10/09 18:37:58;;;;;;;;;;;;;;;;;;5109735;28;19926;-73
2023/10/09 18:40:28;;;;;;;;;;;;;;;;;;5110346;28;19915;-73
2023/10/09 18:42:53;;;;;;;;;;;;;;;;;;5109831;28;19985;-73
2023/10/09 18:45:19;;;;;;;;;;;;;;;;;;5091538;28;19916;-73
2023/10/09 18:47:45;;;;;;;;;;;;;;;;;;5089565;28;19923;-73
2023/10/09 18:50:16;;;;;;;;;;;;;;;;;;5089495;28;20448;-72
2023/10/09 18:52:42;;;;;;;;;;;;;;;;;;5071190;28;19920;-73
2023/10/09 18:55:08;;;;;;;;;;;;;;;;;;5102488;28;19920;-73
2023/10/09 18:57:34;;;;;;;;;;;;;;;;;;5109018;28;19923;-72
2023/10/09 19:00:01;;;;;;;;;;;;;;;;;;5107791;28;19920;-72
2023/10/09 19:02:27;;;;;;;;;;;;;;;;;;5109982;28;19928;-73
2023/10/09 19:04:53;;;;;;;;;;;;;;;;;;5109980;28;19916;-72